Terminal Aerodrome Forecast
Issued by NWS Norman, OK

Home | Current Version | Previous Version | Text Only | Print | Product List | Glossary On
Versions: 1 2 3 4 5 6 7 8 9 10 11 12 13
000
FTUS44 KOUN 101136
TAFOKC
TAF
KOKC 101136Z 1012/1112 16009KT P6SM OVC045
     FM101500 17014G22KT P6SM BKN045
     FM101900 17018G26KT P6SM SCT045 SCT250
     FM110100 18016G23KT P6SM SCT250=

USA.gov is the U.S. government's official web portal to all federal, state and local government web resources and services.